Accueil
METAR-TAF:

METAR-TAF

Aéroports :

Aéroport international de Ouagadougou

Ouagadougou, Burkina Faso

latitude: 12-21N, longitude: 001-31W, altitude: 316 m

Observation

Le bulletin a été fait il y a 20 minutes, à 12:00 UTC
Vent 9 kt de nord-est, variant entre nord et est
Température 35°C
Humidité 9%
Pression 1011 hPa
Visibilité 10 km ou plus
pas de nuages en-dessous de 1500 mètres et pas de cumulonimbus.

METAR: DFFD 231200Z 05009KT 360V090 CAVOK 35/M03 Q1011 NOSIG

Heure: 12:20 (12:20 UTC)

Prévision

Le bulletin a été fait il y a 1 heure et 20 minutes, à 11:00 UTC
Prévision valable du 23 à 12 UTC au 24 à 18 UTC
Vent 10 kt de nord/nord-est
Visibilité: 6000 m
Temporairement
du 23 à 17 UTC au 23 à 21 UTC
Visibilité: 4000 m
brume sèche
Temporairement
du 24 à 06 UTC au 24 à 10 UTC
Visibilité: 4000 m
brume sèche,

TAF: DFFD 231100Z 2312/2418 02010KT 6000 NSC TEMPO 2317/2321 4000 HZ TEMPO 2406/2410 4000 HZ

Observations et prévisions météorologiques de plus de 4000 aéroports (messages METAR et TAF).

Les stations disponibles sont représentées par des disques jaunes et rouges sur la carte.

Passer la souris dessus pour voir le nom de la station.

Cliquer dessus pour voir les observations et prévisions météorologiques.

Pour changer de carte: cliquez sur les boutons verts avec une croix noire pour zoomer, sur le bouton vert avec un tiret pour effectuer un zoom arrière, ou sur les flèches vertes pour les cartes adjacentes.


METAR-TAF: